Vance Air Force Base
KEND : now visible

Airfield :











YOU CAN JOIN US ON...

 
LOGIN :

Register | Disclaimer

   EN    FR    IT 

 









Legend :    VFR   Marginal VFR   IFR   Intensive IFR   Very Intensive IFR
Visi :
Ceiling :
>= 8 km
>= 3000ft
5 to 8 km
1000 to 3000 ft
1500m to 5 km
500 to 1000 ft
800 to 1500m
200 to 500 ft
< 800m
< 200 ft
Symbols :   Thunderstorms  Fog  Heavy snow  Heavy precipitations  Wind > 20 kt







- Airport Elevation : 1307 ft


KEND - Vance Air Force Base

CURRENT METAR :
  • 261526Z AUTO 16012KT 10SM DZ BKN017 24/24 A3003 RMK AO2 DZE1459DZB00E10DZB11 SLP649 $

EXPIRED METARs :
  • 261456Z AUTO 16013KT 10SM DZ FEW060 23/23 A3003 RMK AO2 SLP649 P0000 60000 T02300230 50006 $
  • 261356Z AUTO 11008KT 10SM DZ FEW010 FEW016 SCT075 21/21 A3004 RMK AO2 DZE07DZB28 SLP653 P0000 T02060206 $
  • 261256Z AUTO 07005KT 10SM -DZ FEW050 FEW090 SCT170 19/19 A3003 RMK AO2 LTG DSNT NE SLP648 P0000 T01860186 $

Expired Forecast.
KZKC FIR / North America



MET'MAP, your aeronautical weather chart ! - Copyright ORBIFLY December 2007 - Disclaimer

ORBIFLY MET'MAP TEAM :

Programming & Development : Alexandra Zaïnal
Concept & Development : Baudouin d'Aumeries
Co-Development & Prog : Marc-Olivier Méhu
Technical & hardware support : Manuel Goepfert

Contact : metmap@orbifly.com




SOURCES & CREDITS :

   NOAA       Earth
Advisory